sensor_id;sensor_type;location;lat;lon;timestamp;P1;durP1;ratioP1;P2;durP2;ratioP2
18507;SDS011;9383;50.928;12.116;2022-11-21T00:01:13;14.52;;;12.25;;
18507;SDS011;9383;50.928;12.116;2022-11-21T00:03:42;13.95;;;12.45;;
18507;SDS011;9383;50.928;12.116;2022-11-21T00:06:08;14.55;;;12.38;;
18507;SDS011;9383;50.928;12.116;2022-11-21T00:08:35;15.63;;;12.48;;
18507;SDS011;9383;50.928;12.116;2022-11-21T00:11:02;16.08;;;12.60;;
18507;SDS011;9383;50.928;12.116;2022-11-21T00:13:28;13.73;;;11.52;;
18507;SDS011;9383;50.928;12.116;2022-11-21T00:15:55;16.52;;;12.75;;
18507;SDS011;9383;50.928;12.116;2022-11-21T00:18:26;14.45;;;12.50;;
18507;SDS011;9383;50.928;12.116;2022-11-21T00:20:53;14.75;;;12.32;;
18507;SDS011;9383;50.928;12.116;2022-11-21T00:23:20;14.82;;;12.05;;
18507;SDS011;9383;50.928;12.116;2022-11-21T00:25:47;13.07;;;11.68;;
18507;SDS011;9383;50.928;12.116;2022-11-21T00:28:13;13.60;;;11.93;;
18507;SDS011;9383;50.928;12.116;2022-11-21T00:30:40;14.60;;;12.02;;
18507;SDS011;9383;50.928;12.116;2022-11-21T00:33:06;16.02;;;12.38;;
18507;SDS011;9383;50.928;12.116;2022-11-21T00:35:33;13.00;;;11.27;;
18507;SDS011;9383;50.928;12.116;2022-11-21T00:37:59;6.53;;;5.93;;
18507;SDS011;9383;50.928;12.116;2022-11-21T00:40:26;5.68;;;5.05;;
18507;SDS011;9383;50.928;12.116;2022-11-21T00:42:52;6.28;;;5.68;;
18507;SDS011;9383;50.928;12.116;2022-11-21T00:45:20;6.25;;;5.65;;
18507;SDS011;9383;50.928;12.116;2022-11-21T00:47:46;6.22;;;5.63;;
18507;SDS011;9383;50.928;12.116;2022-11-21T00:50:13;6.43;;;5.78;;
18507;SDS011;9383;50.928;12.116;2022-11-21T00:52:40;6.55;;;5.95;;
18507;SDS011;9383;50.928;12.116;2022-11-21T00:55:07;6.45;;;5.68;;
18507;SDS011;9383;50.928;12.116;2022-11-21T00:57:34;6.65;;;6.03;;
18507;SDS011;9383;50.928;12.116;2022-11-21T01:00:02;6.10;;;5.50;;
18507;SDS011;9383;50.928;12.116;2022-11-21T01:02:31;6.80;;;6.00;;
18507;SDS011;9383;50.928;12.116;2022-11-21T01:04:58;7.05;;;6.35;;
18507;SDS011;9383;50.928;12.116;2022-11-21T01:07:24;6.95;;;6.25;;
18507;SDS011;9383;50.928;12.116;2022-11-21T01:09:52;6.38;;;5.78;;
18507;SDS011;9383;50.928;12.116;2022-11-21T01:12:19;6.30;;;5.70;;
18507;SDS011;9383;50.928;12.116;2022-11-21T01:14:46;5.75;;;5.25;;
18507;SDS011;9383;50.928;12.116;2022-11-21T01:17:13;6.50;;;5.82;;
18507;SDS011;9383;50.928;12.116;2022-11-21T01:19:40;5.70;;;5.20;;
18507;SDS011;9383;50.928;12.116;2022-11-21T01:22:06;4.50;;;4.13;;
18507;SDS011;9383;50.928;12.116;2022-11-21T01:24:33;5.07;;;4.57;;
18507;SDS011;9383;50.928;12.116;2022-11-21T01:27:00;5.18;;;4.45;;
18507;SDS011;9383;50.928;12.116;2022-11-21T01:29:26;4.38;;;3.97;;
18507;SDS011;9383;50.928;12.116;2022-11-21T01:31:53;4.50;;;4.10;;
18507;SDS011;9383;50.928;12.116;2022-11-21T01:34:19;4.40;;;4.00;;
18507;SDS011;9383;50.928;12.116;2022-11-21T01:36:46;3.90;;;3.60;;
18507;SDS011;9383;50.928;12.116;2022-11-21T01:39:13;3.85;;;3.55;;
18507;SDS011;9383;50.928;12.116;2022-11-21T01:41:40;3.70;;;3.40;;
18507;SDS011;9383;50.928;12.116;2022-11-21T01:44:13;3.17;;;2.90;;
18507;SDS011;9383;50.928;12.116;2022-11-21T01:46:48;3.10;;;2.80;;
18507;SDS011;9383;50.928;12.116;2022-11-21T01:49:21;2.47;;;2.28;;
18507;SDS011;9383;50.928;12.116;2022-11-21T01:54:51;2.65;;;2.45;;
18507;SDS011;9383;50.928;12.116;2022-11-21T01:57:28;3.40;;;2.50;;
18507;SDS011;9383;50.928;12.116;2022-11-21T02:02:33;2.40;;;2.20;;
18507;SDS011;9383;50.928;12.116;2022-11-21T02:05:05;2.05;;;1.90;;
18507;SDS011;9383;50.928;12.116;2022-11-21T02:07:42;1.77;;;1.67;;
18507;SDS011;9383;50.928;12.116;2022-11-21T02:10:11;1.85;;;1.75;;
18507;SDS011;9383;50.928;12.116;2022-11-21T02:12:48;1.70;;;1.60;;
18507;SDS011;9383;50.928;12.116;2022-11-21T02:15:19;1.77;;;1.63;;
18507;SDS011;9383;50.928;12.116;2022-11-21T02:17:49;1.85;;;1.75;;
18507;SDS011;9383;50.928;12.116;2022-11-21T02:20:20;1.63;;;1.52;;
18507;SDS011;9383;50.928;12.116;2022-11-21T02:25:34;1.63;;;1.52;;
18507;SDS011;9383;50.928;12.116;2022-11-21T02:28:08;1.30;;;1.20;;
18507;SDS011;9383;50.928;12.116;2022-11-21T02:30:43;1.73;;;1.60;;
18507;SDS011;9383;50.928;12.116;2022-11-21T02:33:10;1.70;;;1.60;;
18507;SDS011;9383;50.928;12.116;2022-11-21T02:35:38;1.35;;;1.35;;
18507;SDS011;9383;50.928;12.116;2022-11-21T02:38:16;1.38;;;1.27;;
18507;SDS011;9383;50.928;12.116;2022-11-21T02:40:59;1.40;;;1.30;;
18507;SDS011;9383;50.928;12.116;2022-11-21T02:43:46;1.40;;;1.30;;
18507;SDS011;9383;50.928;12.116;2022-11-21T02:46:17;1.30;;;1.30;;
18507;SDS011;9383;50.928;12.116;2022-11-21T02:48:44;1.55;;;1.45;;
18507;SDS011;9383;50.928;12.116;2022-11-21T02:51:11;1.10;;;1.10;;
18507;SDS011;9383;50.928;12.116;2022-11-21T02:53:37;2.50;;;1.55;;
18507;SDS011;9383;50.928;12.116;2022-11-21T02:56:03;1.20;;;1.20;;
18507;SDS011;9383;50.928;12.116;2022-11-21T02:58:30;1.35;;;1.30;;
18507;SDS011;9383;50.928;12.116;2022-11-21T03:00:56;1.48;;;1.38;;
18507;SDS011;9383;50.928;12.116;2022-11-21T03:03:23;1.58;;;1.48;;
18507;SDS011;9383;50.928;12.116;2022-11-21T03:05:49;1.33;;;1.30;;
18507;SDS011;9383;50.928;12.116;2022-11-21T03:08:16;1.60;;;1.50;;
18507;SDS011;9383;50.928;12.116;2022-11-21T03:10:43;1.70;;;1.60;;
18507;SDS011;9383;50.928;12.116;2022-11-21T03:13:09;1.40;;;1.30;;
18507;SDS011;9383;50.928;12.116;2022-11-21T03:15:36;1.33;;;1.33;;
18507;SDS011;9383;50.928;12.116;2022-11-21T03:18:03;2.33;;;1.30;;
18507;SDS011;9383;50.928;12.116;2022-11-21T03:20:30;1.35;;;1.35;;
18507;SDS011;9383;50.928;12.116;2022-11-21T03:22:59;1.55;;;1.48;;
18507;SDS011;9383;50.928;12.116;2022-11-21T03:25:26;1.17;;;1.15;;
18507;SDS011;9383;50.928;12.116;2022-11-21T03:27:52;1.20;;;1.20;;
18507;SDS011;9383;50.928;12.116;2022-11-21T03:30:20;1.88;;;1.17;;
18507;SDS011;9383;50.928;12.116;2022-11-21T03:32:49;1.45;;;1.38;;
18507;SDS011;9383;50.928;12.116;2022-11-21T03:35:15;1.23;;;1.23;;
18507;SDS011;9383;50.928;12.116;2022-11-21T03:37:43;1.33;;;1.23;;
18507;SDS011;9383;50.928;12.116;2022-11-21T03:40:11;1.60;;;1.50;;
18507;SDS011;9383;50.928;12.116;2022-11-21T03:42:38;1.70;;;1.60;;
18507;SDS011;9383;50.928;12.116;2022-11-21T03:45:08;1.52;;;1.42;;
18507;SDS011;9383;50.928;12.116;2022-11-21T03:47:34;1.23;;;1.23;;
18507;SDS011;9383;50.928;12.116;2022-11-21T03:50:01;1.55;;;1.42;;
18507;SDS011;9383;50.928;12.116;2022-11-21T03:52:27;1.40;;;1.40;;
18507;SDS011;9383;50.928;12.116;2022-11-21T03:54:54;1.52;;;1.42;;
18507;SDS011;9383;50.928;12.116;2022-11-21T03:57:20;1.35;;;1.27;;
18507;SDS011;9383;50.928;12.116;2022-11-21T03:59:47;1.77;;;1.67;;
18507;SDS011;9383;50.928;12.116;2022-11-21T04:02:13;1.42;;;1.40;;
18507;SDS011;9383;50.928;12.116;2022-11-21T04:04:39;1.30;;;1.30;;
18507;SDS011;9383;50.928;12.116;2022-11-21T04:07:06;1.35;;;1.27;;
18507;SDS011;9383;50.928;12.116;2022-11-21T04:09:32;1.40;;;1.40;;
18507;SDS011;9383;50.928;12.116;2022-11-21T04:11:59;1.05;;;1.05;;
18507;SDS011;9383;50.928;12.116;2022-11-21T04:14:27;0.90;;;0.90;;
18507;SDS011;9383;50.928;12.116;2022-11-21T04:16:53;1.10;;;1.00;;
18507;SDS011;9383;50.928;12.116;2022-11-21T04:19:20;0.90;;;0.90;;
18507;SDS011;9383;50.928;12.116;2022-11-21T04:21:46;0.70;;;0.70;;
18507;SDS011;9383;50.928;12.116;2022-11-21T04:24:13;1.10;;;1.10;;
18507;SDS011;9383;50.928;12.116;2022-11-21T04:26:39;0.80;;;0.75;;
18507;SDS011;9383;50.928;12.116;2022-11-21T04:29:06;1.38;;;1.25;;
18507;SDS011;9383;50.928;12.116;2022-11-21T04:31:32;1.90;;;1.80;;
18507;SDS011;9383;50.928;12.116;2022-11-21T04:33:59;1.73;;;1.63;;
18507;SDS011;9383;50.928;12.116;2022-11-21T04:36:25;2.50;;;2.30;;
18507;SDS011;9383;50.928;12.116;2022-11-21T04:38:52;3.92;;;3.63;;
18507;SDS011;9383;50.928;12.116;2022-11-21T04:41:18;4.47;;;3.67;;
18507;SDS011;9383;50.928;12.116;2022-11-21T04:43:45;4.85;;;4.45;;
18507;SDS011;9383;50.928;12.116;2022-11-21T04:46:11;5.13;;;4.60;;
18507;SDS011;9383;50.928;12.116;2022-11-21T04:48:38;5.15;;;4.70;;
18507;SDS011;9383;50.928;12.116;2022-11-21T04:51:04;5.25;;;4.85;;
18507;SDS011;9383;50.928;12.116;2022-11-21T04:53:30;6.05;;;5.55;;
18507;SDS011;9383;50.928;12.116;2022-11-21T04:55:57;5.07;;;4.68;;
18507;SDS011;9383;50.928;12.116;2022-11-21T04:58:27;5.25;;;4.85;;
18507;SDS011;9383;50.928;12.116;2022-11-21T05:00:53;5.35;;;4.85;;
18507;SDS011;9383;50.928;12.116;2022-11-21T05:03:20;5.13;;;4.72;;
18507;SDS011;9383;50.928;12.116;2022-11-21T05:05:46;5.10;;;4.70;;
18507;SDS011;9383;50.928;12.116;2022-11-21T05:08:13;5.30;;;4.90;;
18507;SDS011;9383;50.928;12.116;2022-11-21T05:10:40;5.20;;;4.80;;
18507;SDS011;9383;50.928;12.116;2022-11-21T05:13:26;4.93;;;4.53;;
18507;SDS011;9383;50.928;12.116;2022-11-21T05:15:55;5.00;;;4.60;;
18507;SDS011;9383;50.928;12.116;2022-11-21T05:18:22;5.00;;;4.60;;
18507;SDS011;9383;50.928;12.116;2022-11-21T05:20:49;5.30;;;4.80;;
18507;SDS011;9383;50.928;12.116;2022-11-21T05:23:15;4.40;;;4.10;;
18507;SDS011;9383;50.928;12.116;2022-11-21T05:25:42;4.57;;;4.28;;
18507;SDS011;9383;50.928;12.116;2022-11-21T05:28:10;5.28;;;4.78;;
18507;SDS011;9383;50.928;12.116;2022-11-21T05:30:36;6.20;;;5.68;;
18507;SDS011;9383;50.928;12.116;2022-11-21T05:33:03;6.78;;;6.18;;
18507;SDS011;9383;50.928;12.116;2022-11-21T05:35:29;8.65;;;7.85;;
18507;SDS011;9383;50.928;12.116;2022-11-21T05:37:56;9.27;;;8.38;;
18507;SDS011;9383;50.928;12.116;2022-11-21T05:40:23;10.25;;;9.20;;
18507;SDS011;9383;50.928;12.116;2022-11-21T05:42:51;8.95;;;8.15;;
18507;SDS011;9383;50.928;12.116;2022-11-21T05:45:36;9.35;;;8.55;;
18507;SDS011;9383;50.928;12.116;2022-11-21T05:48:03;8.63;;;7.82;;
18507;SDS011;9383;50.928;12.116;2022-11-21T05:50:33;8.20;;;7.43;;
18507;SDS011;9383;50.928;12.116;2022-11-21T05:53:01;8.13;;;7.43;;
18507;SDS011;9383;50.928;12.116;2022-11-21T05:55:29;8.35;;;7.65;;
18507;SDS011;9383;50.928;12.116;2022-11-21T05:57:58;7.75;;;7.05;;
18507;SDS011;9383;50.928;12.116;2022-11-21T06:00:25;7.43;;;6.82;;
18507;SDS011;9383;50.928;12.116;2022-11-21T06:02:52;8.02;;;7.30;;
18507;SDS011;9383;50.928;12.116;2022-11-21T06:05:37;8.48;;;7.75;;
18507;SDS011;9383;50.928;12.116;2022-11-21T06:08:04;7.85;;;7.15;;
18507;SDS011;9383;50.928;12.116;2022-11-21T06:10:30;8.85;;;7.97;;
18507;SDS011;9383;50.928;12.116;2022-11-21T06:13:00;9.10;;;8.30;;
18507;SDS011;9383;50.928;12.116;2022-11-21T06:15:28;8.45;;;7.75;;
18507;SDS011;9383;50.928;12.116;2022-11-21T06:17:54;9.60;;;8.70;;
18507;SDS011;9383;50.928;12.116;2022-11-21T06:20:24;9.80;;;8.90;;
18507;SDS011;9383;50.928;12.116;2022-11-21T06:22:50;9.40;;;8.60;;
18507;SDS011;9383;50.928;12.116;2022-11-21T06:25:17;9.50;;;8.60;;
18507;SDS011;9383;50.928;12.116;2022-11-21T06:27:44;10.00;;;9.10;;
18507;SDS011;9383;50.928;12.116;2022-11-21T06:30:10;9.35;;;8.55;;
18507;SDS011;9383;50.928;12.116;2022-11-21T06:32:37;9.50;;;8.60;;
18507;SDS011;9383;50.928;12.116;2022-11-21T06:35:04;10.23;;;9.32;;
18507;SDS011;9383;50.928;12.116;2022-11-21T06:37:30;9.98;;;9.07;;
18507;SDS011;9383;50.928;12.116;2022-11-21T06:39:57;11.48;;;10.38;;
18507;SDS011;9383;50.928;12.116;2022-11-21T06:42:24;10.88;;;9.77;;
18507;SDS011;9383;50.928;12.116;2022-11-21T06:44:50;12.63;;;11.43;;
18507;SDS011;9383;50.928;12.116;2022-11-21T06:47:17;11.38;;;10.30;;
18507;SDS011;9383;50.928;12.116;2022-11-21T06:49:44;11.35;;;10.30;;
18507;SDS011;9383;50.928;12.116;2022-11-21T06:52:11;11.65;;;10.60;;
18507;SDS011;9383;50.928;12.116;2022-11-21T06:54:38;11.70;;;10.57;;
18507;SDS011;9383;50.928;12.116;2022-11-21T06:57:04;12.20;;;11.10;;
18507;SDS011;9383;50.928;12.116;2022-11-21T06:59:31;12.98;;;11.68;;
18507;SDS011;9383;50.928;12.116;2022-11-21T07:01:57;13.73;;;12.32;;
18507;SDS011;9383;50.928;12.116;2022-11-21T07:04:24;13.73;;;12.32;;
18507;SDS011;9383;50.928;12.116;2022-11-21T07:06:50;14.63;;;13.13;;
18507;SDS011;9383;50.928;12.116;2022-11-21T07:09:17;14.38;;;12.88;;
18507;SDS011;9383;50.928;12.116;2022-11-21T07:11:44;14.27;;;12.80;;
18507;SDS011;9383;50.928;12.116;2022-11-21T07:14:10;14.55;;;13.05;;
18507;SDS011;9383;50.928;12.116;2022-11-21T07:16:40;15.98;;;14.25;;
18507;SDS011;9383;50.928;12.116;2022-11-21T07:19:09;15.05;;;13.48;;
18507;SDS011;9383;50.928;12.116;2022-11-21T07:21:36;15.23;;;13.73;;
18507;SDS011;9383;50.928;12.116;2022-11-21T07:24:03;14.35;;;12.85;;
18507;SDS011;9383;50.928;12.116;2022-11-21T07:26:29;11.90;;;10.80;;
18507;SDS011;9383;50.928;12.116;2022-11-21T07:28:57;12.85;;;11.55;;
18507;SDS011;9383;50.928;12.116;2022-11-21T07:31:23;12.32;;;10.70;;
18507;SDS011;9383;50.928;12.116;2022-11-21T07:33:50;12.55;;;11.35;;
18507;SDS011;9383;50.928;12.116;2022-11-21T07:36:17;13.20;;;11.90;;
18507;SDS011;9383;50.928;12.116;2022-11-21T07:38:44;13.00;;;11.57;;
18507;SDS011;9383;50.928;12.116;2022-11-21T07:41:11;13.98;;;12.55;;
18507;SDS011;9383;50.928;12.116;2022-11-21T07:43:38;13.35;;;11.95;;
18507;SDS011;9383;50.928;12.116;2022-11-21T07:46:04;14.98;;;13.30;;
18507;SDS011;9383;50.928;12.116;2022-11-21T07:48:30;14.73;;;13.15;;
18507;SDS011;9383;50.928;12.116;2022-11-21T07:50:57;14.80;;;13.23;;
18507;SDS011;9383;50.928;12.116;2022-11-21T07:53:27;15.35;;;12.95;;
18507;SDS011;9383;50.928;12.116;2022-11-21T07:55:53;16.45;;;13.77;;
18507;SDS011;9383;50.928;12.116;2022-11-21T07:58:23;15.20;;;13.60;;
18507;SDS011;9383;50.928;12.116;2022-11-21T08:00:50;15.65;;;13.50;;
18507;SDS011;9383;50.928;12.116;2022-11-21T08:03:18;17.00;;;14.10;;
18507;SDS011;9383;50.928;12.116;2022-11-21T08:05:44;17.95;;;14.02;;
18507;SDS011;9383;50.928;12.116;2022-11-21T08:08:12;16.05;;;14.05;;
18507;SDS011;9383;50.928;12.116;2022-11-21T08:10:43;18.77;;;15.18;;
18507;SDS011;9383;50.928;12.116;2022-11-21T08:13:10;18.10;;;14.00;;
18507;SDS011;9383;50.928;12.116;2022-11-21T08:15:38;16.80;;;14.27;;
18507;SDS011;9383;50.928;12.116;2022-11-21T08:18:12;18.48;;;15.70;;
18507;SDS011;9383;50.928;12.116;2022-11-21T08:20:40;17.58;;;14.57;;
18507;SDS011;9383;50.928;12.116;2022-11-21T08:23:07;17.88;;;15.10;;
18507;SDS011;9383;50.928;12.116;2022-11-21T08:25:38;18.77;;;15.63;;
18507;SDS011;9383;50.928;12.116;2022-11-21T08:28:06;19.08;;;16.05;;
18507;SDS011;9383;50.928;12.116;2022-11-21T08:30:35;18.73;;;15.20;;
18507;SDS011;9383;50.928;12.116;2022-11-21T08:33:03;19.52;;;15.88;;
18507;SDS011;9383;50.928;12.116;2022-11-21T08:35:30;20.45;;;17.65;;
18507;SDS011;9383;50.928;12.116;2022-11-21T08:37:57;20.50;;;16.35;;
18507;SDS011;9383;50.928;12.116;2022-11-21T08:40:25;18.98;;;15.75;;
18507;SDS011;9383;50.928;12.116;2022-11-21T08:43:00;21.13;;;16.88;;
18507;SDS011;9383;50.928;12.116;2022-11-21T08:45:28;21.27;;;18.13;;
18507;SDS011;9383;50.928;12.116;2022-11-21T08:47:56;23.42;;;16.75;;
18507;SDS011;9383;50.928;12.116;2022-11-21T08:50:23;19.42;;;16.75;;
18507;SDS011;9383;50.928;12.116;2022-11-21T08:52:50;23.65;;;18.38;;
18507;SDS011;9383;50.928;12.116;2022-11-21T08:55:17;24.05;;;19.02;;
18507;SDS011;9383;50.928;12.116;2022-11-21T08:57:44;21.85;;;16.83;;
18507;SDS011;9383;50.928;12.116;2022-11-21T09:00:13;23.65;;;18.80;;
18507;SDS011;9383;50.928;12.116;2022-11-21T09:02:40;21.55;;;17.70;;
18507;SDS011;9383;50.928;12.116;2022-11-21T09:05:07;21.95;;;17.83;;
18507;SDS011;9383;50.928;12.116;2022-11-21T09:07:34;20.13;;;17.50;;
18507;SDS011;9383;50.928;12.116;2022-11-21T09:10:00;22.40;;;19.02;;
18507;SDS011;9383;50.928;12.116;2022-11-21T09:12:27;23.08;;;18.15;;
18507;SDS011;9383;50.928;12.116;2022-11-21T09:14:54;21.20;;;17.73;;
18507;SDS011;9383;50.928;12.116;2022-11-21T09:17:40;21.20;;;18.13;;
18507;SDS011;9383;50.928;12.116;2022-11-21T09:20:25;23.55;;;17.67;;
18507;SDS011;9383;50.928;12.116;2022-11-21T09:22:53;21.42;;;17.67;;
18507;SDS011;9383;50.928;12.116;2022-11-21T09:25:20;21.27;;;17.77;;
18507;SDS011;9383;50.928;12.116;2022-11-21T09:27:50;22.73;;;18.92;;
18507;SDS011;9383;50.928;12.116;2022-11-21T09:30:16;22.25;;;17.23;;
18507;SDS011;9383;50.928;12.116;2022-11-21T09:32:43;21.35;;;17.25;;
18507;SDS011;9383;50.928;12.116;2022-11-21T09:35:09;20.67;;;17.13;;
18507;SDS011;9383;50.928;12.116;2022-11-21T09:37:36;22.30;;;18.20;;
18507;SDS011;9383;50.928;12.116;2022-11-21T09:40:03;21.20;;;17.10;;
18507;SDS011;9383;50.928;12.116;2022-11-21T09:45:15;22.65;;;17.70;;
18507;SDS011;9383;50.928;12.116;2022-11-21T09:48:11;20.33;;;16.55;;
18507;SDS011;9383;50.928;12.116;2022-11-21T09:50:46;23.60;;;17.10;;
18507;SDS011;9383;50.928;12.116;2022-11-21T09:53:25;21.10;;;17.20;;
18507;SDS011;9383;50.928;12.116;2022-11-21T09:55:59;19.98;;;15.93;;
18507;SDS011;9383;50.928;12.116;2022-11-21T09:58:42;21.65;;;16.80;;
18507;SDS011;9383;50.928;12.116;2022-11-21T10:01:12;22.20;;;16.77;;
18507;SDS011;9383;50.928;12.116;2022-11-21T10:03:46;20.52;;;16.23;;
18507;SDS011;9383;50.928;12.116;2022-11-21T10:12:03;19.42;;;16.52;;
18507;SDS011;9383;50.928;12.116;2022-11-21T10:20:30;21.23;;;16.27;;
18507;SDS011;9383;50.928;12.116;2022-11-21T10:29:18;19.80;;;16.55;;
18507;SDS011;9383;50.928;12.116;2022-11-21T10:32:02;22.42;;;18.00;;
18507;SDS011;9383;50.928;12.116;2022-11-21T10:34:38;20.80;;;16.90;;
18507;SDS011;9383;50.928;12.116;2022-11-21T10:37:15;21.15;;;17.13;;
18507;SDS011;9383;50.928;12.116;2022-11-21T10:39:52;19.95;;;17.55;;
18507;SDS011;9383;50.928;12.116;2022-11-21T10:42:40;20.60;;;16.58;;
18507;SDS011;9383;50.928;12.116;2022-11-21T10:45:24;22.00;;;17.85;;
18507;SDS011;9383;50.928;12.116;2022-11-21T10:47:51;20.45;;;16.35;;
18507;SDS011;9383;50.928;12.116;2022-11-21T10:53:18;22.63;;;17.23;;
18507;SDS011;9383;50.928;12.116;2022-11-21T10:56:11;24.02;;;18.13;;
18507;SDS011;9383;50.928;12.116;2022-11-21T11:01:33;21.33;;;17.23;;
18507;SDS011;9383;50.928;12.116;2022-11-21T11:06:36;23.75;;;18.15;;
18507;SDS011;9383;50.928;12.116;2022-11-21T11:09:21;22.83;;;18.10;;
18507;SDS011;9383;50.928;12.116;2022-11-21T11:11:49;23.33;;;17.90;;
18507;SDS011;9383;50.928;12.116;2022-11-21T11:14:16;24.90;;;19.15;;
18507;SDS011;9383;50.928;12.116;2022-11-21T11:17:00;22.67;;;18.65;;
18507;SDS011;9383;50.928;12.116;2022-11-21T11:19:28;24.63;;;18.30;;
18507;SDS011;9383;50.928;12.116;2022-11-21T11:21:54;23.20;;;17.70;;
18507;SDS011;9383;50.928;12.116;2022-11-21T11:24:22;23.98;;;18.00;;
18507;SDS011;9383;50.928;12.116;2022-11-21T11:26:59;22.27;;;18.13;;
18507;SDS011;9383;50.928;12.116;2022-11-21T11:29:29;24.70;;;18.60;;
18507;SDS011;9383;50.928;12.116;2022-11-21T11:34:58;24.30;;;18.77;;
18507;SDS011;9383;50.928;12.116;2022-11-21T11:38:10;21.98;;;17.25;;
18507;SDS011;9383;50.928;12.116;2022-11-21T11:40:41;22.60;;;18.58;;
18507;SDS011;9383;50.928;12.116;2022-11-21T11:43:20;26.38;;;19.52;;
18507;SDS011;9383;50.928;12.116;2022-11-21T11:49:30;25.58;;;19.50;;
18507;SDS011;9383;50.928;12.116;2022-11-21T11:52:23;25.42;;;18.58;;
18507;SDS011;9383;50.928;12.116;2022-11-21T11:54:55;24.17;;;19.30;;
18507;SDS011;9383;50.928;12.116;2022-11-21T11:57:30;25.13;;;19.05;;
18507;SDS011;9383;50.928;12.116;2022-11-21T12:00:06;24.80;;;18.98;;
18507;SDS011;9383;50.928;12.116;2022-11-21T12:02:48;26.90;;;19.23;;
18507;SDS011;9383;50.928;12.116;2022-11-21T12:05:30;23.98;;;18.70;;
18507;SDS011;9383;50.928;12.116;2022-11-21T12:08:01;23.45;;;18.65;;
18507;SDS011;9383;50.928;12.116;2022-11-21T12:10:44;23.05;;;19.40;;
18507;SDS011;9383;50.928;12.116;2022-11-21T12:13:38;25.33;;;20.33;;
18507;SDS011;9383;50.928;12.116;2022-11-21T12:16:08;25.77;;;20.70;;
18507;SDS011;9383;50.928;12.116;2022-11-21T12:31:54;24.73;;;18.75;;
18507;SDS011;9383;50.928;12.116;2022-11-21T12:43:12;26.35;;;20.23;;
18507;SDS011;9383;50.928;12.116;2022-11-21T12:48:50;26.55;;;20.00;;
18507;SDS011;9383;50.928;12.116;2022-11-21T12:52:34;24.52;;;19.88;;
18507;SDS011;9383;50.928;12.116;2022-11-21T12:55:28;28.73;;;20.55;;
18507;SDS011;9383;50.928;12.116;2022-11-21T13:01:26;25.80;;;20.20;;
18507;SDS011;9383;50.928;12.116;2022-11-21T13:06:03;24.33;;;18.77;;
18507;SDS011;9383;50.928;12.116;2022-11-21T13:08:34;25.13;;;18.83;;
18507;SDS011;9383;50.928;12.116;2022-11-21T13:11:18;26.02;;;20.52;;
18507;SDS011;9383;50.928;12.116;2022-11-21T13:14:30;24.55;;;19.85;;
18507;SDS011;9383;50.928;12.116;2022-11-21T13:17:17;24.65;;;19.33;;
18507;SDS011;9383;50.928;12.116;2022-11-21T13:19:56;26.00;;;19.73;;
18507;SDS011;9383;50.928;12.116;2022-11-21T13:27:39;24.45;;;19.50;;
18507;SDS011;9383;50.928;12.116;2022-11-21T13:32:43;23.13;;;18.83;;
18507;SDS011;9383;50.928;12.116;2022-11-21T13:38:02;24.67;;;18.85;;
18507;SDS011;9383;50.928;12.116;2022-11-21T13:45:46;25.52;;;20.13;;
18507;SDS011;9383;50.928;12.116;2022-11-21T13:48:16;28.40;;;20.67;;
18507;SDS011;9383;50.928;12.116;2022-11-21T13:56:41;26.75;;;20.45;;
18507;SDS011;9383;50.928;12.116;2022-11-21T14:02:23;27.13;;;20.83;;
18507;SDS011;9383;50.928;12.116;2022-11-21T14:07:54;26.25;;;19.95;;
18507;SDS011;9383;50.928;12.116;2022-11-21T14:10:37;27.70;;;20.33;;
18507;SDS011;9383;50.928;12.116;2022-11-21T14:13:04;27.90;;;19.95;;
18507;SDS011;9383;50.928;12.116;2022-11-21T14:18:19;25.95;;;19.27;;
18507;SDS011;9383;50.928;12.116;2022-11-21T14:23:21;26.13;;;20.48;;
18507;SDS011;9383;50.928;12.116;2022-11-21T14:25:53;26.60;;;20.52;;
18507;SDS011;9383;50.928;12.116;2022-11-21T14:28:27;28.15;;;20.85;;
18507;SDS011;9383;50.928;12.116;2022-11-21T14:30:59;27.45;;;20.48;;
18507;SDS011;9383;50.928;12.116;2022-11-21T14:33:27;25.98;;;20.33;;
18507;SDS011;9383;50.928;12.116;2022-11-21T14:36:02;27.40;;;19.65;;
18507;SDS011;9383;50.928;12.116;2022-11-21T14:38:35;23.80;;;18.73;;
18507;SDS011;9383;50.928;12.116;2022-11-21T14:41:10;24.42;;;18.90;;
18507;SDS011;9383;50.928;12.116;2022-11-21T14:44:00;23.60;;;18.55;;
18507;SDS011;9383;50.928;12.116;2022-11-21T14:46:28;23.85;;;17.95;;
18507;SDS011;9383;50.928;12.116;2022-11-21T14:49:16;24.67;;;19.05;;
18507;SDS011;9383;50.928;12.116;2022-11-21T14:51:50;25.13;;;18.48;;
18507;SDS011;9383;50.928;12.116;2022-11-21T14:54:42;22.23;;;18.05;;
18507;SDS011;9383;50.928;12.116;2022-11-21T14:57:25;22.17;;;17.65;;
18507;SDS011;9383;50.928;12.116;2022-11-21T15:00:05;21.90;;;17.30;;
18507;SDS011;9383;50.928;12.116;2022-11-21T15:02:32;21.33;;;17.83;;
18507;SDS011;9383;50.928;12.116;2022-11-21T15:05:00;20.05;;;16.33;;
18507;SDS011;9383;50.928;12.116;2022-11-21T15:07:40;22.30;;;16.88;;
18507;SDS011;9383;50.928;12.116;2022-11-21T15:10:12;21.73;;;16.58;;
18507;SDS011;9383;50.928;12.116;2022-11-21T15:18:00;20.95;;;16.63;;
18507;SDS011;9383;50.928;12.116;2022-11-21T15:20:29;21.52;;;16.98;;
18507;SDS011;9383;50.928;12.116;2022-11-21T15:22:59;20.67;;;16.98;;
18507;SDS011;9383;50.928;12.116;2022-11-21T15:25:30;19.00;;;15.88;;
18507;SDS011;9383;50.928;12.116;2022-11-21T15:28:16;20.58;;;16.52;;
18507;SDS011;9383;50.928;12.116;2022-11-21T15:30:43;18.77;;;15.68;;
18507;SDS011;9383;50.928;12.116;2022-11-21T15:33:11;19.58;;;15.77;;
18507;SDS011;9383;50.928;12.116;2022-11-21T15:35:52;20.15;;;15.93;;
18507;SDS011;9383;50.928;12.116;2022-11-21T15:44:20;18.35;;;15.65;;
18507;SDS011;9383;50.928;12.116;2022-11-21T15:46:30;20.98;;;17.30;;
18507;SDS011;9383;50.928;12.116;2022-11-21T15:49:03;21.27;;;17.38;;
18507;SDS011;9383;50.928;12.116;2022-11-21T15:51:38;18.40;;;16.15;;
18507;SDS011;9383;50.928;12.116;2022-11-21T15:54:06;19.13;;;16.20;;
18507;SDS011;9383;50.928;12.116;2022-11-21T15:56:35;21.15;;;16.17;;
18507;SDS011;9383;50.928;12.116;2022-11-21T15:59:02;18.33;;;15.10;;
18507;SDS011;9383;50.928;12.116;2022-11-21T16:01:29;18.77;;;15.35;;
18507;SDS011;9383;50.928;12.116;2022-11-21T16:04:07;17.80;;;15.77;;
18507;SDS011;9383;50.928;12.116;2022-11-21T16:06:35;19.05;;;16.27;;
18507;SDS011;9383;50.928;12.116;2022-11-21T16:09:02;20.75;;;16.63;;
18507;SDS011;9383;50.928;12.116;2022-11-21T16:11:30;21.80;;;17.10;;
18507;SDS011;9383;50.928;12.116;2022-11-21T16:13:59;19.38;;;16.65;;
18507;SDS011;9383;50.928;12.116;2022-11-21T16:16:30;22.23;;;17.45;;
18507;SDS011;9383;50.928;12.116;2022-11-21T16:18:59;18.20;;;15.80;;
18507;SDS011;9383;50.928;12.116;2022-11-21T16:21:26;17.83;;;15.70;;
18507;SDS011;9383;50.928;12.116;2022-11-21T16:23:54;16.98;;;15.15;;
18507;SDS011;9383;50.928;12.116;2022-11-21T16:26:21;18.13;;;15.50;;
18507;SDS011;9383;50.928;12.116;2022-11-21T16:28:53;18.00;;;15.07;;
18507;SDS011;9383;50.928;12.116;2022-11-21T16:31:29;19.50;;;16.33;;
18507;SDS011;9383;50.928;12.116;2022-11-21T16:33:58;17.40;;;15.60;;
18507;SDS011;9383;50.928;12.116;2022-11-21T16:36:25;19.25;;;16.85;;
18507;SDS011;9383;50.928;12.116;2022-11-21T16:38:53;19.35;;;17.35;;
18507;SDS011;9383;50.928;12.116;2022-11-21T16:41:21;17.60;;;15.70;;
18507;SDS011;9383;50.928;12.116;2022-11-21T16:43:49;17.30;;;14.73;;
18507;SDS011;9383;50.928;12.116;2022-11-21T16:46:18;18.05;;;15.52;;
18507;SDS011;9383;50.928;12.116;2022-11-21T16:48:46;17.98;;;14.93;;